Time;durP1;ratioP1;P1;durP2;ratioP2;P2;SDS_P1;SDS_P2;PMS_P1;PMS_P2;Temp;Humidity;BMP_temperature;BMP_pressure;BME280_temperature;BME280_humidity;BME280_pressure;Samples;Min_cycle;Max_cycle;Signal;HPM_P1;HPM_P2
2022/01/28 00:02:09;;;;;;;;;41.25;39.25;;;;;-4.67;82.57;101510.84;5096242;28;8941;-68
2022/01/28 00:05:05;;;;;;;;;35.25;35.25;;;;;-4.59;82.30;101512.50;5096421;28;8829;-67
2022/01/28 00:08:01;;;;;;;;;46.25;41.50;;;;;-4.53;81.95;101503.53;5100868;28;8865;-68
2022/01/28 00:10:57;;;;;;;;;51.75;48.00;;;;;-4.55;82.40;101498.34;5116468;28;8853;-68
2022/01/28 00:13:58;;;;;;;;;52.00;47.00;;;;;-4.56;83.30;101503.97;5116241;28;8811;-68
2022/01/28 00:38:52;;;;;;;;;47.50;45.75;;;;;-4.21;81.56;101477.47;5113849;28;8843;-67
2022/01/28 00:41:48;;;;;;;;;48.50;44.50;;;;;-4.43;82.27;101468.00;5125495;27;8949;-67
2022/01/28 00:44:43;;;;;;;;;46.00;42.00;;;;;-4.34;82.29;101462.16;5135552;27;8816;-66
2022/01/28 00:47:39;;;;;;;;;48.00;40.50;;;;;-4.33;82.28;101465.66;5135402;27;8855;-67
2022/01/28 00:50:34;;;;;;;;;55.50;47.00;;;;;-4.34;83.36;101462.16;5121838;27;8950;-67
2022/01/28 00:53:30;;;;;;;;;51.50;47.75;;;;;-4.34;83.14;101461.31;5135155;27;8875;-67
2022/01/28 00:56:26;;;;;;;;;48.00;45.75;;;;;-4.32;83.75;101464.63;5135381;27;8904;-67
2022/01/28 00:59:21;;;;;;;;;41.25;41.25;;;;;-4.32;84.08;101459.22;5139929;27;8823;-67
2022/01/28 01:02:17;;;;;;;;;46.00;41.25;;;;;-4.27;84.32;101460.25;5121269;27;8808;-68
2022/01/28 01:05:13;;;;;;;;;59.50;48.50;;;;;-4.17;83.84;101454.38;5121190;27;8835;-67
2022/01/28 01:08:08;;;;;;;;;50.25;45.50;;;;;-4.25;84.36;101446.53;5155229;27;8852;-67
2022/01/28 01:11:05;;;;;;;;;61.00;49.50;;;;;-4.23;84.52;101445.25;5134918;27;8815;-67
2022/01/28 01:14:00;;;;;;;;;63.50;53.75;;;;;-4.26;84.01;101434.88;5134918;27;8831;-67
2022/01/28 01:20:02;;;;;;;;;44.25;41.25;;;;;-4.25;84.45;101433.00;5141411;27;8868;-67
2022/01/28 01:28:59;;;;;;;;;48.50;44.50;;;;;-4.07;85.03;101414.22;5152580;27;8829;-67
2022/01/28 01:32:02;;;;;;;;;56.00;50.25;;;;;-4.00;84.44;101408.78;5134504;27;9561;-68
2022/01/28 01:34:57;;;;;;;;;50.25;46.50;;;;;-3.83;84.21;101403.66;5134489;27;8823;-67
2022/01/28 01:37:53;;;;;;;;;49.25;45.00;;;;;-3.64;82.73;101403.53;5134495;27;8815;-67
2022/01/28 01:40:55;;;;;;;;;50.25;41.00;;;;;-3.69;82.03;101400.66;5120542;27;8843;-67
2022/01/28 01:44:03;;;;;;;;;21.00;20.00;;;;;-3.53;81.36;101387.66;5134294;27;8818;-67
2022/01/28 01:52:00;;;;;;;;;45.25;42.25;;;;;-3.45;80.87;101387.38;5134321;27;8847;-68
2022/01/28 01:53:43;;;;;;;;;35.25;35.25;;;;;-3.48;81.12;101383.25;5138321;27;8825;-67
2022/01/28 01:56:39;;;;;;;;;39.75;39.75;;;;;-3.43;81.31;101396.09;5155626;27;8841;-67
2022/01/28 01:59:37;;;;;;;;;39.75;35.25;;;;;-3.45;80.57;101390.94;5148253;27;8836;-67
2022/01/28 02:02:32;;;;;;;;;36.75;36.25;;;;;-3.37;80.69;101387.13;5145135;27;8809;-67
2022/01/28 02:05:28;;;;;;;;;46.25;44.50;;;;;-3.57;81.23;101391.84;5124197;27;8937;-68
2022/01/28 02:08:28;;;;;;;;;43.75;42.00;;;;;-3.49;81.51;101381.59;5139967;27;9566;-67
2022/01/28 02:11:24;;;;;;;;;38.67;34.00;;;;;-3.43;80.79;101383.41;5154428;27;8836;-67
2022/01/28 02:14:20;;;;;;;;;17.50;11.50;;;;;-3.37;81.45;101379.00;5154425;27;8847;-67
2022/01/28 02:17:15;;;;;;;;;44.75;41.00;;;;;-3.24;81.66;101376.16;5154264;27;8825;-67
2022/01/28 02:20:21;;;;;;;;;30.75;30.75;;;;;-3.17;80.99;101379.63;5152450;27;8836;-68
2022/01/28 02:23:18;;;;;;;;;38.00;36.50;;;;;-3.24;80.68;101370.75;5154332;27;9605;-67
2022/01/28 02:26:16;;;;;;;;;40.75;37.50;;;;;-3.28;81.13;101380.38;5154252;27;8817;-67
2022/01/28 02:29:14;;;;;;;;;45.00;37.00;;;;;-3.20;80.30;101377.38;5141896;27;8870;-67
2022/01/28 02:32:10;;;;;;;;;31.33;31.33;;;;;-3.27;80.93;101368.50;5133430;27;8819;-68
2022/01/28 02:35:06;;;;;;;;;41.00;35.25;;;;;-3.15;80.79;101360.44;5133589;27;8823;-68
2022/01/28 02:38:02;;;;;;;;;45.75;43.75;;;;;-3.15;80.56;101365.88;5134066;27;8815;-67
2022/01/28 02:41:00;;;;;;;;;38.25;34.00;;;;;-3.19;80.80;101360.09;5119193;27;8846;-68
2022/01/28 02:47:02;;;;;;;;;40.50;37.00;;;;;-3.31;80.58;101358.31;5136137;27;8853;-67
2022/01/28 02:49:58;;;;;;;;;42.75;38.00;;;;;-3.23;80.51;101369.69;5152446;27;8843;-68
2022/01/28 02:53:04;;;;;;;;;44.50;37.50;;;;;-3.18;80.31;101363.63;5153760;27;8853;-67
2022/01/28 02:56:02;;;;;;;;;44.75;42.50;;;;;-3.18;80.47;101353.63;5154026;27;8933;-68
2022/01/28 02:58:58;;;;;;;;;36.50;32.25;;;;;-3.10;79.83;101353.31;5151954;27;9647;-68
2022/01/28 03:01:54;;;;;;;;;40.00;31.75;;;;;-3.05;79.59;101346.44;5147414;27;8820;-68
2022/01/28 03:05:34;;;;;;;;;30.50;26.75;;;;;-3.11;79.36;101340.84;5134469;27;8859;-67
2022/01/28 03:08:08;;;;;;;;;45.50;39.25;;;;;-3.02;78.41;101337.84;5153790;27;9526;-67
2022/01/28 03:14:34;;;;;;;;;46.25;44.75;;;;;-3.21;78.47;101329.72;5132942;27;8812;-67
2022/01/28 03:20:37;;;;;;;;;34.75;32.00;;;;;-3.02;78.66;101313.50;5132863;27;8891;-67
2022/01/28 03:23:36;;;;;;;;;39.25;36.00;;;;;-2.95;78.32;101306.13;5133792;27;8823;-67
2022/01/28 03:26:32;;;;;;;;;34.67;32.33;;;;;-2.96;78.71;101294.47;5137124;27;8841;-67
2022/01/28 03:29:27;;;;;;;;;37.00;37.00;;;;;-2.88;78.02;101294.16;5139819;27;8953;-67
2022/01/28 03:32:23;;;;;;;;;26.25;24.75;;;;;-2.95;78.76;101301.53;5132150;27;8815;-66
2022/01/28 03:35:20;;;;;;;;;42.50;36.75;;;;;-2.91;78.65;101291.91;5137950;27;8842;-66
2022/01/28 03:38:15;;;;;;;;;39.25;37.50;;;;;-3.04;78.57;101305.59;5127391;27;8831;-67
2022/01/28 03:41:16;;;;;;;;;29.75;27.50;;;;;-3.17;78.90;101303.03;5136693;27;8835;-67
2022/01/28 03:44:12;;;;;;;;;33.00;33.00;;;;;-3.01;78.32;101307.84;5136789;27;9560;-67
2022/01/28 03:47:07;;;;;;;;;19.00;19.00;;;;;-2.99;77.49;101296.78;5151809;27;8952;-67
2022/01/28 03:50:03;;;;;;;;;29.33;27.00;;;;;-2.99;77.58;101310.31;5148804;27;9596;-67
2022/01/28 03:53:00;;;;;;;;;21.33;20.33;;;;;-2.98;77.33;101303.88;5144083;27;8837;-67
2022/01/28 03:55:57;;;;;;;;;32.00;31.00;;;;;-2.92;76.99;101292.13;5137613;27;8830;-67
2022/01/28 03:58:53;;;;;;;;;29.67;28.67;;;;;-3.11;77.00;101297.56;5157507;27;8821;-68
2022/01/28 04:01:50;;;;;;;;;24.00;23.33;;;;;-2.94;76.27;101288.81;5152487;27;8821;-67
2022/01/28 04:13:35;;;;;;;;;36.00;31.00;;;;;-2.88;75.47;101304.16;5156791;27;8864;-67
2022/01/28 04:17:18;;;;;;;;;35.33;34.00;;;;;-2.94;75.26;101291.53;5157045;27;8817;-67
2022/01/28 04:19:47;;;;;;;;;34.75;34.00;;;;;-2.88;75.59;101296.03;5156825;27;8849;-67
2022/01/28 04:22:42;;;;;;;;;31.67;31.67;;;;;-2.92;76.19;101284.00;5156625;27;8813;-68
2022/01/28 04:25:38;;;;;;;;;36.33;33.33;;;;;-2.91;76.32;101283.81;5157262;27;8813;-68
2022/01/28 04:28:33;;;;;;;;;30.33;29.33;;;;;-2.86;76.09;101297.47;5156703;27;8817;-68
2022/01/28 04:31:29;;;;;;;;;31.00;30.67;;;;;-2.95;76.47;101298.81;5156600;27;8899;-68
2022/01/28 04:34:25;;;;;;;;;40.33;39.00;;;;;-3.03;76.72;101296.44;5155810;27;8809;-68
2022/01/28 04:37:40;;;;;;;;;33.67;33.67;;;;;-3.04;76.48;101302.06;5142278;27;9669;-68
2022/01/28 04:40:43;;;;;;;;;12.67;12.67;;;;;-2.99;76.38;101308.47;5156393;27;8909;-67
2022/01/28 04:43:48;;;;;;;;;35.33;34.00;;;;;-3.08;76.56;101316.03;5137044;27;8847;-67
2022/01/28 04:47:02;;;;;;;;;37.33;35.33;;;;;-3.02;77.03;101310.78;5121812;27;8819;-67
2022/01/28 04:59:32;;;;;;;;;30.33;30.33;;;;;-2.93;77.44;101285.88;5135673;27;8811;-68
2022/01/28 05:27:39;;;;;;;;;37.67;36.67;;;;;-2.82;77.67;101289.72;5109634;28;8937;-67
2022/01/28 05:30:35;;;;;;;;;33.67;33.67;;;;;-2.80;77.34;101291.16;5146148;27;8946;-67
2022/01/28 05:33:30;;;;;;;;;40.33;37.33;;;;;-2.59;75.80;101297.97;5134260;27;8847;-67
2022/01/28 05:36:26;;;;;;;;;39.33;38.33;;;;;-2.74;75.74;101299.41;5133405;27;8823;-67
2022/01/28 05:39:22;;;;;;;;;35.00;33.00;;;;;-2.25;81.43;101293.72;5134273;27;8842;-68
2022/01/28 05:42:17;;;;;;;;;52.00;44.33;;;;;-1.94;87.54;101299.91;5143216;27;8797;-67
2022/01/28 05:45:13;;;;;;;;;41.00;40.33;;;;;-1.79;84.41;101291.34;5137017;27;8846;-68
2022/01/28 05:48:09;;;;;;;;;46.00;41.00;;;;;-1.92;80.06;101284.22;5134206;27;9623;-67
2022/01/28 05:51:04;;;;;;;;;42.67;39.67;;;;;-2.01;79.53;101293.78;5134014;27;8851;-67
2022/01/28 05:54:07;;;;;;;;;38.33;34.33;;;;;-1.91;77.69;101276.94;5133981;27;8891;-67
2022/01/28 05:57:03;;;;;;;;;44.33;35.33;;;;;-1.58;81.87;101271.78;5133985;27;8830;-68
2022/01/28 05:59:58;;;;;;;;;43.67;42.00;;;;;-1.48;79.50;101266.56;5133978;27;8896;-68
2022/01/28 06:02:54;;;;;;;;;30.67;30.00;;;;;-1.23;79.79;101269.00;5141928;27;8867;-68
2022/01/28 06:05:49;;;;;;;;;36.00;34.00;;;;;-1.39;76.97;101272.47;5154233;27;8837;-67
2022/01/28 06:08:47;;;;;;;;;36.67;36.67;;;;;-1.47;77.59;101264.69;5151068;27;8849;-68
2022/01/28 06:11:45;;;;;;;;;53.67;47.00;;;;;-1.40;78.77;101263.50;5133587;27;8811;-68
2022/01/28 06:14:41;;;;;;;;;40.67;39.00;;;;;-1.20;78.70;101260.41;5120064;27;8816;-68
2022/01/28 06:17:37;;;;;;;;;42.00;40.67;;;;;-1.12;77.45;101267.38;5120340;27;8847;-68
2022/01/28 06:20:33;;;;;;;;;42.33;42.33;;;;;-1.31;76.08;101276.69;5137521;27;8821;-68
2022/01/28 06:23:28;;;;;;;;;36.33;36.00;;;;;-1.21;78.30;101268.81;5137172;27;8835;-68
2022/01/28 06:26:24;;;;;;;;;46.67;41.67;;;;;-0.52;84.98;101274.25;5133555;27;8827;-68
2022/01/28 06:29:20;;;;;;;;;47.67;44.33;;;;;-0.65;80.64;101267.22;5142815;27;9710;-67
2022/01/28 06:32:16;;;;;;;;;39.33;34.00;;;;;-0.49;82.46;101261.00;5119809;27;8930;-67
2022/01/28 06:35:12;;;;;;;;;26.33;22.00;;;;;0.34;85.21;101273.03;5133467;27;8849;-67
2022/01/28 06:38:08;;;;;;;;;37.33;33.00;;;;;0.01;84.87;101262.16;5133307;27;8851;-67
2022/01/28 06:41:03;;;;;;;;;41.33;36.00;;;;;1.13;88.78;101255.56;5119450;27;8841;-68
2022/01/28 06:43:59;;;;;;;;;36.00;33.00;;;;;0.10;78.98;101258.78;5119673;27;8846;-69
2022/01/28 06:46:55;;;;;;;;;28.67;26.33;;;;;0.02;81.37;101271.97;5134164;27;8845;-68
2022/01/28 06:49:50;;;;;;;;;28.33;26.00;;;;;-0.40;79.36;101266.88;5143324;27;8828;-68
2022/01/28 06:52:46;;;;;;;;;26.00;26.00;;;;;-0.43;79.74;101264.66;5136223;27;8824;-68
2022/01/28 06:55:43;;;;;;;;;32.67;25.00;;;;;0.11;87.63;101259.59;5142234;27;8953;-68
2022/01/28 06:58:38;;;;;;;;;23.33;21.67;;;;;-0.35;77.35;101256.09;5151714;27;8809;-67
2022/01/28 07:01:36;;;;;;;;;37.67;35.00;;;;;-0.22;79.17;101254.97;5130423;27;8858;-67
2022/01/28 07:04:31;;;;;;;;;28.00;28.00;;;;;0.39;83.29;101242.34;5129028;27;8815;-67
2022/01/28 07:07:28;;;;;;;;;28.00;27.33;;;;;0.64;89.07;101248.16;5132874;27;8858;-69
2022/01/28 07:10:24;;;;;;;;;33.00;29.33;;;;;-0.16;80.02;101240.38;5134928;27;8815;-69
2022/01/28 07:13:19;;;;;;;;;32.33;30.00;;;;;0.25;85.22;101236.44;5132861;27;8859;-69
2022/01/28 07:16:15;;;;;;;;;25.67;25.67;;;;;0.46;85.21;101238.38;5119233;27;8843;-68
2022/01/28 07:19:10;;;;;;;;;31.00;31.00;;;;;-0.04;80.63;101230.25;5132806;27;8858;-69
2022/01/28 07:21:38;;;;;;;;;27.67;27.33;;;;;-0.30;77.63;101224.41;5115732;27;8852;-69
2022/01/28 07:24:06;;;;;;;;;28.33;23.00;;;;;-0.38;81.06;101232.13;5116214;27;8846;-67
2022/01/28 07:26:34;;;;;;;;;29.00;29.00;;;;;-0.51;79.16;101229.72;5134034;27;8900;-69
2022/01/28 07:29:01;;;;;;;;;42.67;37.67;;;;;0.06;85.97;101230.41;5115642;27;8835;-68
2022/01/28 07:31:29;;;;;;;;;33.67;33.67;;;;;0.02;80.60;101232.00;5133887;27;8828;-69
2022/01/28 07:33:57;;;;;;;;;32.00;30.33;;;;;0.35;84.00;101231.13;5134021;27;8846;-69
2022/01/28 07:36:26;;;;;;;;;26.00;26.00;;;;;0.58;83.32;101224.66;5134039;27;8839;-69
2022/01/28 07:38:54;;;;;;;;;27.00;25.00;;;;;1.54;87.98;101224.16;5115500;27;8854;-69
2022/01/28 07:41:36;;;;;;;;;21.33;21.33;;;;;1.13;82.66;101223.72;5132357;27;9603;-69
2022/01/28 07:44:32;;;;;;;;;22.33;22.00;;;;;0.49;76.88;101226.16;5132459;27;8851;-67
2022/01/28 07:47:28;;;;;;;;;25.67;24.33;;;;;0.26;77.27;101228.00;5132537;27;8855;-68
2022/01/28 07:50:23;;;;;;;;;33.00;33.00;;;;;0.50;77.83;101234.06;5132332;27;8839;-68
2022/01/28 07:53:19;;;;;;;;;28.67;28.00;;;;;0.48;79.75;101224.53;5132642;27;8823;-68
2022/01/28 07:56:15;;;;;;;;;31.00;30.00;;;;;1.47;85.92;101227.09;5132414;27;8841;-68
2022/01/28 07:59:10;;;;;;;;;28.33;28.33;;;;;1.25;82.91;101224.41;5132495;27;9696;-68
2022/01/28 08:02:07;;;;;;;;;27.67;27.67;;;;;1.31;84.09;101228.00;5132123;27;11495;-67
2022/01/28 08:05:02;;;;;;;;;31.33;31.33;;;;;1.15;82.74;101231.63;5118983;27;8824;-67
2022/01/28 08:08:03;;;;;;;;;22.67;22.67;;;;;1.38;84.67;101226.72;5132393;27;8827;-68
2022/01/28 08:10:59;;;;;;;;;27.33;27.33;;;;;0.81;80.86;101229.03;5132010;27;11542;-68
2022/01/28 08:13:55;;;;;;;;;26.00;26.00;;;;;1.15;85.71;101228.91;5139778;27;11550;-68
2022/01/28 08:16:51;;;;;;;;;31.00;26.67;;;;;1.30;84.96;101219.00;5138888;27;11484;-69
2022/01/28 08:19:46;;;;;;;;;28.33;25.67;;;;;0.49;79.38;101218.00;5137407;27;9635;-71
2022/01/28 08:22:53;;;;;;;;;37.00;36.00;;;;;0.14;80.76;101201.97;5127554;27;8817;-71
2022/01/28 08:25:53;;;;;;;;;19.67;19.00;;;;;-0.50;83.90;101196.84;5131177;27;8805;-71
2022/01/28 08:28:49;;;;;;;;;23.33;23.33;;;;;-0.80;85.81;101188.16;5142298;27;8839;-71
2022/01/28 08:31:17;;;;;;;;;21.67;19.00;;;;;-0.88;86.59;101187.47;5155305;27;8840;-71
2022/01/28 08:34:13;;;;;;;;;20.33;18.67;;;;;-1.20;87.56;101175.44;5157647;27;8867;-71
2022/01/28 08:37:08;;;;;;;;;27.33;26.33;;;;;-1.21;88.43;101171.09;5155065;27;8820;-71
2022/01/28 08:40:06;;;;;;;;;26.67;26.67;;;;;-1.23;88.50;101173.19;5128534;27;8827;-71
2022/01/28 08:43:01;;;;;;;;;27.00;24.67;;;;;-1.24;88.74;101169.66;5135888;27;8823;-71
2022/01/28 08:45:58;;;;;;;;;27.33;27.00;;;;;-1.19;89.81;101163.53;5124272;27;8829;-71
2022/01/28 08:48:56;;;;;;;;;28.67;27.33;;;;;-1.04;89.37;101149.41;5122047;27;8835;-70
2022/01/28 08:51:51;;;;;;;;;17.33;16.00;;;;;-1.09;90.40;101152.84;5151267;27;8840;-71
2022/01/28 08:54:47;;;;;;;;;23.33;20.67;;;;;-1.04;90.56;101150.25;5152683;27;8817;-71
2022/01/28 08:57:44;;;;;;;;;27.00;27.00;;;;;-1.05;91.13;101145.88;5146616;27;8835;-70
2022/01/28 09:00:42;;;;;;;;;30.00;30.00;;;;;-1.01;91.03;101141.59;5126123;27;8841;-70
2022/01/28 09:03:38;;;;;;;;;24.67;23.67;;;;;-0.70;91.10;101142.16;5138301;27;8843;-70
2022/01/28 09:06:34;;;;;;;;;25.00;25.00;;;;;-0.32;89.67;101139.53;5149733;27;8825;-68
2022/01/28 09:09:30;;;;;;;;;34.33;28.67;;;;;-0.22;89.39;101129.91;5155869;27;8952;-68
2022/01/28 09:15:03;;;;;;;;;27.67;27.33;;;;;0.16;87.55;101108.19;5154156;27;8841;-69
2022/01/28 09:18:03;;;;;;;;;22.67;22.67;;;;;0.34;86.38;101100.78;5154788;27;8813;-68
2022/01/28 09:20:59;;;;;;;;;26.33;26.33;;;;;0.44;86.79;101100.91;5135147;27;8859;-68
2022/01/28 09:23:54;;;;;;;;;33.00;30.00;;;;;0.57;86.15;101095.06;5152372;27;8825;-71
2022/01/28 09:26:52;;;;;;;;;28.33;27.33;;;;;0.62;86.19;101081.53;5120725;27;8851;-72
2022/01/28 09:29:48;;;;;;;;;29.33;29.33;;;;;0.57;85.50;101077.94;5139545;27;8809;-71
2022/01/28 09:32:43;;;;;;;;;26.33;26.00;;;;;0.58;86.24;101072.22;5141268;27;8836;-70
2022/01/28 09:35:34;;;;;;;;;32.00;29.33;;;;;0.53;86.48;101062.09;5141827;27;8863;-71
2022/01/28 09:38:30;;;;;;;;;28.00;28.00;;;;;0.57;86.70;101064.31;5130497;27;8980;-71
2022/01/28 09:41:25;;;;;;;;;38.00;35.33;;;;;0.58;87.42;101065.97;5132597;27;8811;-70
2022/01/28 09:44:21;;;;;;;;;43.00;34.00;;;;;0.55;87.90;101056.41;5120312;27;8839;-71
2022/01/28 09:47:17;;;;;;;;;26.00;26.00;;;;;0.52;87.90;101056.91;5129761;27;8813;-70
2022/01/28 09:50:14;;;;;;;;;37.00;32.33;;;;;0.61;87.79;101032.78;5143333;27;9596;-71
2022/01/28 09:53:10;;;;;;;;;37.00;34.00;;;;;0.60;87.90;101037.41;5137472;27;9792;-71
2022/01/28 09:56:05;;;;;;;;;47.00;40.67;;;;;0.52;88.74;101026.97;5140979;27;8833;-71
2022/01/28 09:59:01;;;;;;;;;46.00;43.00;;;;;0.73;88.29;101025.28;5132193;27;8854;-71
2022/01/28 10:01:29;;;;;;;;;40.00;37.00;;;;;0.62;88.51;101020.84;5147425;27;8821;-70
2022/01/28 10:04:24;;;;;;;;;34.67;27.67;;;;;0.72;88.48;101010.84;5139180;27;8863;-71
2022/01/28 10:07:20;;;;;;;;;34.00;33.00;;;;;0.73;88.26;101003.50;5154012;27;8858;-71
2022/01/28 10:10:16;;;;;;;;;40.33;39.33;;;;;0.77;88.32;100996.47;5140025;27;8821;-68
2022/01/28 10:13:43;;;;;;;;;42.67;37.00;;;;;0.78;88.46;100982.59;5154257;27;8989;-68
2022/01/28 10:16:38;;;;;;;;;42.00;42.00;;;;;0.85;88.63;100979.66;5141296;27;8829;-68
2022/01/28 10:19:40;;;;;;;;;36.67;35.67;;;;;0.91;88.02;100980.50;5154387;27;8833;-69
2022/01/28 10:22:49;;;;;;;;;37.67;37.00;;;;;0.91;87.67;100973.16;5140435;27;8825;-70
2022/01/28 10:25:45;;;;;;;;;32.00;31.67;;;;;0.96;88.67;100972.41;5140135;27;8840;-71
2022/01/28 10:28:51;;;;;;;;;33.33;31.33;;;;;0.93;88.72;100962.84;5153979;27;8861;-69
2022/01/28 10:32:14;;;;;;;;;35.00;33.67;;;;;1.08;87.96;100949.34;5153943;27;8860;-69
2022/01/28 10:35:10;;;;;;;;;33.00;32.33;;;;;1.16;88.25;100941.78;5154031;27;9060;-69
2022/01/28 10:38:07;;;;;;;;;34.33;33.00;;;;;1.17;88.74;100921.63;5154038;27;8972;-69
2022/01/28 10:41:15;;;;;;;;;31.00;29.67;;;;;1.22;88.12;100922.44;5153667;27;8817;-68
2022/01/28 10:44:12;;;;;;;;;28.33;28.33;;;;;1.24;88.47;100920.31;5139910;27;8825;-68
2022/01/28 10:47:09;;;;;;;;;35.67;35.67;;;;;1.26;88.71;100909.13;5153663;27;8837;-68
2022/01/28 10:50:27;;;;;;;;;35.67;35.67;;;;;1.37;87.88;100916.28;5139849;27;8904;-69
2022/01/28 10:53:27;;;;;;;;;25.67;24.33;;;;;1.25;89.01;100921.13;5139908;27;11489;-70
2022/01/28 10:56:23;;;;;;;;;21.00;21.00;;;;;1.38;88.95;100917.91;5153404;27;11522;-67
2022/01/28 10:59:20;;;;;;;;;35.33;31.67;;;;;1.37;88.20;100911.63;5147165;27;12356;-67
2022/01/28 11:02:17;;;;;;;;;33.67;33.67;;;;;1.33;88.69;100896.91;5148975;27;8817;-68
2022/01/28 11:05:13;;;;;;;;;40.00;34.67;;;;;1.34;89.69;100901.28;5149243;27;11487;-68
2022/01/28 11:08:11;;;;;;;;;35.67;34.33;;;;;1.33;90.34;100899.66;5120336;27;11475;-68
2022/01/28 11:11:07;;;;;;;;;31.00;30.67;;;;;1.25;90.74;100894.69;5150691;27;9607;-68
2022/01/28 11:14:03;;;;;;;;;36.00;36.00;;;;;1.38;91.50;100893.38;5132945;27;8827;-68
2022/01/28 11:16:59;;;;;;;;;41.67;40.67;;;;;1.43;91.45;100884.44;5132454;27;11488;-68
2022/01/28 11:19:55;;;;;;;;;39.33;31.67;;;;;1.37;91.93;100878.94;5137923;27;8839;-70
2022/01/28 11:23:15;;;;;;;;;34.33;32.67;;;;;1.52;91.29;100872.75;5131635;27;11483;-68
2022/01/28 11:26:28;;;;;;;;;30.33;28.33;;;;;1.37;92.10;100861.78;5141497;27;11560;-69
2022/01/28 11:29:28;;;;;;;;;38.00;33.67;;;;;1.46;92.54;100852.03;5151078;27;8856;-69
2022/01/28 11:32:24;;;;;;;;;35.33;26.67;;;;;1.54;92.33;100861.59;5132677;27;12262;-69
2022/01/28 11:35:21;;;;;;;;;36.33;36.33;;;;;1.65;92.25;100849.63;5132742;27;11520;-69
2022/01/28 11:38:29;;;;;;;;;30.00;30.00;;;;;1.73;92.18;100845.56;5129726;27;8950;-69
2022/01/28 11:41:25;;;;;;;;;25.67;23.67;;;;;1.81;92.03;100842.31;5118667;27;11535;-69
2022/01/28 11:44:39;;;;;;;;;32.67;32.67;;;;;1.72;92.01;100833.84;5132552;27;11507;-68
2022/01/28 11:47:36;;;;;;;;;25.00;25.00;;;;;1.63;92.23;100825.38;5133517;27;11671;-69
2022/01/28 11:50:31;;;;;;;;;31.33;27.33;;;;;1.65;92.97;100820.47;5150998;27;11489;-69
2022/01/28 11:53:27;;;;;;;;;34.67;33.00;;;;;1.61;93.25;100819.38;5150453;27;11528;-68
2022/01/28 11:56:24;;;;;;;;;22.67;22.67;;;;;1.72;93.27;100814.75;5151913;27;11489;-69
2022/01/28 11:59:25;;;;;;;;;33.67;33.00;;;;;1.71;93.57;100810.41;5152170;27;11457;-69
2022/01/28 12:02:21;;;;;;;;;32.67;30.67;;;;;1.83;92.83;100810.94;5135734;27;8846;-68
2022/01/28 12:05:09;;;;;;;;;35.33;34.00;;;;;1.81;93.72;100806.88;5125582;27;11550;-68
2022/01/28 12:08:05;;;;;;;;;25.33;24.00;;;;;1.73;93.88;100807.38;5136075;27;11504;-67
2022/01/28 12:11:06;;;;;;;;;31.33;26.67;;;;;1.89;93.95;100809.06;5135222;27;11527;-69
2022/01/28 12:14:04;;;;;;;;;36.50;33.00;;;;;1.84;93.86;100807.16;5136094;27;11507;-69
2022/01/28 12:17:36;;;;;;;;;33.25;30.25;;;;;1.99;94.18;100816.44;5141067;27;11532;-69
2022/01/28 12:20:45;;;;;;;;;29.75;26.50;;;;;1.84;94.31;100807.16;5154937;27;11493;-69
2022/01/28 12:23:40;;;;;;;;;26.75;26.75;;;;;1.86;94.07;100802.25;5136463;27;12333;-68
2022/01/28 12:26:55;;;;;;;;;27.00;27.00;;;;;2.04;94.16;100797.34;5135851;27;11631;-69
2022/01/28 12:29:33;;;;;;;;;39.33;33.33;;;;;2.08;93.63;100795.72;5137706;27;11486;-69
2022/01/28 12:32:29;;;;;;;;;31.33;26.67;;;;;2.13;94.05;100784.81;5154090;27;11506;-69
2022/01/28 12:35:25;;;;;;;;;20.00;20.00;;;;;2.17;93.81;100780.44;5156517;27;11592;-68
2022/01/28 12:38:23;;;;;;;;;24.25;24.25;;;;;2.11;93.83;100776.91;5139007;27;11528;-68
2022/01/28 12:41:19;;;;;;;;;24.50;24.50;;;;;2.14;94.32;100765.41;5141243;27;11603;-69
2022/01/28 12:43:46;;;;;;;;;30.67;30.67;;;;;2.20;94.58;100760.78;5147056;27;11605;-68
2022/01/28 12:46:52;;;;;;;;;23.25;23.25;;;;;2.25;93.81;100740.88;5132303;27;11490;-67
2022/01/28 12:49:56;;;;;;;;;31.50;27.75;;;;;2.37;93.76;100744.13;5146103;27;11459;-69
2022/01/28 12:52:51;;;;;;;;;19.25;17.75;;;;;2.41;93.69;100737.03;5138927;27;11499;-69
2022/01/28 12:55:48;;;;;;;;;32.25;31.50;;;;;2.47;92.97;100742.22;5122783;27;11491;-68
2022/01/28 12:58:16;;;;;;;;;27.75;26.75;;;;;2.47;93.75;100744.94;5145907;27;11496;-69
2022/01/28 13:01:14;;;;;;;;;22.25;22.25;;;;;2.71;92.30;100741.63;5135867;27;11536;-68
2022/01/28 13:06:42;;;;;;;;;25.25;25.25;;;;;2.70;92.01;100740.81;5140165;27;11503;-68
2022/01/28 13:09:38;;;;;;;;;24.00;24.00;;;;;2.73;92.02;100731.22;5152945;27;11488;-68
2022/01/28 13:12:34;;;;;;;;;19.50;19.50;;;;;2.59;92.46;100735.63;5121026;27;12286;-69
2022/01/28 13:15:29;;;;;;;;;24.75;24.75;;;;;2.64;92.55;100735.63;5133718;27;11506;-69
2022/01/28 13:17:59;;;;;;;;;31.50;29.00;;;;;2.61;92.65;100739.75;5135753;27;11487;-68
2022/01/28 13:20:41;;;;;;;;;24.50;24.50;;;;;2.66;92.13;100730.69;5118286;27;11602;-68
2022/01/28 13:23:36;;;;;;;;;26.75;26.75;;;;;2.68;92.68;100740.25;5135187;27;12301;-67
2022/01/28 13:26:32;;;;;;;;;31.50;28.00;;;;;2.68;92.75;100750.34;5134808;27;11748;-67
2022/01/28 13:29:13;;;;;;;;;22.25;18.25;;;;;2.56;93.05;100742.47;5134044;27;11539;-68
2022/01/28 13:31:41;;;;;;;;;27.25;25.50;;;;;2.62;92.77;100744.09;5117281;27;11520;-67
2022/01/28 13:34:47;;;;;;;;;27.75;27.00;;;;;2.55;93.10;100738.09;5120985;27;11518;-68
2022/01/28 13:37:39;;;;;;;;;27.75;25.75;;;;;2.63;93.34;100740.28;5135415;27;11499;-68
2022/01/28 13:40:37;;;;;;;;;24.50;23.25;;;;;2.69;92.45;100738.34;5120585;27;11483;-68
2022/01/28 13:43:39;;;;;;;;;20.50;20.50;;;;;2.69;91.90;100735.63;5120258;27;11485;-68
2022/01/28 13:46:38;;;;;;;;;31.25;31.25;;;;;2.55;92.90;100743.56;5134094;27;11492;-68
2022/01/28 13:49:36;;;;;;;;;24.00;24.00;;;;;2.65;91.69;100742.72;5133926;27;11506;-72
2022/01/28 13:52:45;;;;;;;;;34.75;31.25;;;;;2.64;92.36;100733.72;5124284;27;11683;-68
2022/01/28 13:55:41;;;;;;;;;29.00;28.75;;;;;2.74;92.29;100732.84;5136469;27;12277;-68
2022/01/28 13:58:43;;;;;;;;;35.25;31.25;;;;;2.75;91.67;100729.84;5139284;27;11526;-68
2022/01/28 14:01:44;;;;;;;;;32.00;32.00;;;;;2.82;91.64;100732.28;5135895;27;11612;-68
2022/01/28 14:04:42;;;;;;;;;26.00;26.00;;;;;2.72;91.70;100724.94;5140756;27;11591;-68
2022/01/28 14:07:52;;;;;;;;;29.25;29.25;;;;;2.85;90.97;100717.28;5137278;27;11552;-68
2022/01/28 14:10:48;;;;;;;;;36.75;36.75;;;;;2.70;90.95;100716.22;5119785;27;11514;-68
2022/01/28 14:13:43;;;;;;;;;34.25;33.50;;;;;2.61;91.85;100720.63;5133635;27;12394;-69
2022/01/28 14:16:40;;;;;;;;;34.50;34.50;;;;;2.70;91.56;100720.88;5119726;27;12311;-69
2022/01/28 14:19:37;;;;;;;;;30.75;28.50;;;;;2.63;91.89;100710.25;5147863;27;11489;-68
2022/01/28 14:22:33;;;;;;;;;38.25;36.50;;;;;2.64;91.98;100711.06;5153853;27;11536;-70
2022/01/28 14:25:29;;;;;;;;;41.50;39.75;;;;;2.58;91.71;100706.69;5154100;27;11551;-68
2022/01/28 14:28:38;;;;;;;;;30.00;29.75;;;;;2.61;91.68;100712.44;5140095;27;11500;-69
2022/01/28 14:31:33;;;;;;;;;41.50;37.25;;;;;2.64;91.56;100706.41;5136849;27;11518;-68
2022/01/28 14:34:29;;;;;;;;;35.25;34.25;;;;;2.32;92.36;100698.56;5136573;27;11597;-68
2022/01/28 14:37:31;;;;;;;;;20.00;18.25;;;;;2.23;93.75;100692.84;5154060;27;11557;-69
2022/01/28 14:40:26;;;;;;;;;41.00;39.33;;;;;1.93;94.67;100701.06;5121564;27;11569;-68
2022/01/28 14:43:22;;;;;;;;;34.50;34.50;;;;;2.02;95.10;100698.59;5111505;28;11523;-67
2022/01/28 14:46:34;;;;;;;;;40.00;37.00;;;;;1.75;96.31;100699.69;5113168;28;11502;-68
2022/01/28 14:49:30;;;;;;;;;38.33;36.33;;;;;1.93;97.12;100704.63;5113337;28;8819;-68
2022/01/28 14:52:29;;;;;;;;;28.67;27.67;;;;;1.74;97.12;100708.94;5113109;28;12308;-68
2022/01/28 14:55:26;;;;;;;;;25.33;23.67;;;;;1.61;97.38;100714.94;5118057;27;11527;-68
2022/01/28 14:58:21;;;;;;;;;27.33;27.33;;;;;1.64;97.10;100728.03;5114106;27;11556;-67
2022/01/28 15:01:17;;;;;;;;;31.67;30.00;;;;;1.84;97.19;100728.06;5113525;28;11510;-68
2022/01/28 15:04:13;;;;;;;;;40.67;38.67;;;;;1.67;98.24;100720.13;5117974;27;8908;-68
2022/01/28 15:07:09;;;;;;;;;33.67;33.33;;;;;1.58;98.46;100721.75;5131916;27;9721;-68